SBJU/JDO METAR and TAF weather

Enter ICAO airport designator
Station Type Date Time Source
SBJU METAR 2021/09/16 22:00 UTC NOAA

SBJU 162200Z 19006KT 9999 FEW020 31/13 Q1017


Station Type Date Time Source
SBJU Decoded METAR 2021/09/16 22:00 UTC NOAA

Station name not available
Sep 16, 2021 - 06:00 PM EDT / 2021.09.16 2200 UTC
Wind: from the S (190 degrees) at 7 MPH (6 KT):0
Visibility: greater than 7 mile(s):0
Sky conditions: mostly clear
Temperature: 87 F (31 C)
Dew Point: 55 F (13 C)
Relative Humidity: 33%
Pressure (altimeter): 30.03 in. Hg (1017 hPa)
ob: SBJU 162200Z 19006KT 9999 FEW020 31/13 Q1017
cycle: 22

Station Type Date Time Source
SBJU TAF 2011/11/01 00:05 UTC NOAA

TAF SBJU 012200Z 0200/0212 00000KT 9999 SCT020 TX28/0200Z TN24/0207Z
BECMG 0210/0212 06005KT
RMK PCE

Example: see airport list